Terminal Aerodrome Forecast
Issued by NWS Boise, ID

Home | Current Version | Previous Version | Text Only | Print | Product List | Glossary On
Versions: 1 2 3 4 5 6 7 8 9 10 11 12 13 14
000
FTUS45 KBOI 261149
TAFBNO
TAF
KBNO 261149Z 2612/2712 23008KT P6SM -SHRA SCT020 OVC040
      TEMPO 2615/2619 5SM SHRA SCT010 OVC015
     FM262200 26015G23KT P6SM BKN050
     FM270200 25011KT P6SM SCT050=

USA.gov is the U.S. government's official web portal to all federal, state and local government web resources and services.